TimeAKDT,TemperatureF,Dew PointF,Humidity,Sea Level PressureIn,VisibilityMPH,Wind Direction,Wind SpeedMPH,Gust SpeedMPH,PrecipitationIn,Events,Conditions,WindDirDegrees,DateUTC
12:53 AM,21.9,5.0,48,30.17,10.0,North,11.5,-,N/A,,Clear,360,2013-04-13 08:53:00
1:53 AM,19.0,5.0,54,30.19,10.0,NNE,10.4,-,N/A,,Clear,20,2013-04-13 09:53:00
2:53 AM,15.1,3.9,61,30.19,10.0,North,8.1,-,N/A,,Clear,350,2013-04-13 10:53:00
3:53 AM,15.1,3.0,59,30.21,10.0,North,6.9,-,N/A,,Clear,350,2013-04-13 11:53:00
4:53 AM,16.0,3.0,57,30.22,10.0,North,3.5,-,N/A,,Clear,360,2013-04-13 12:53:00
5:53 AM,14.0,1.9,59,30.23,10.0,North,3.5,-,N/A,,Clear,350,2013-04-13 13:53:00
6:53 AM,12.0,1.9,64,30.24,10.0,Calm,Calm,-,N/A,,Clear,0,2013-04-13 14:53:00
7:53 AM,10.0,1.9,70,30.25,10.0,NE,3.5,-,N/A,,Clear,50,2013-04-13 15:53:00
8:53 AM,19.9,6.1,55,30.27,10.0,ENE,5.8,-,N/A,,Clear,60,2013-04-13 16:53:00
9:53 AM,21.9,5.0,48,30.29,10.0,North,6.9,-,N/A,,Clear,360,2013-04-13 17:53:00
10:53 AM,25.0,5.0,43,30.30,10.0,North,12.7,-,N/A,,Clear,360,2013-04-13 18:53:00
11:53 AM,27.0,6.1,41,30.31,10.0,North,12.7,-,N/A,,Clear,360,2013-04-13 19:53:00
12:53 PM,28.9,7.0,40,30.31,10.0,North,12.7,-,N/A,,Clear,10,2013-04-13 20:53:00
1:53 PM,28.9,6.1,38,30.32,10.0,North,5.8,-,N/A,,Clear,10,2013-04-13 21:53:00
2:53 PM,30.0,9.0,41,30.32,10.0,North,5.8,-,N/A,,Clear,360,2013-04-13 22:53:00
3:53 PM,30.9,9.0,40,30.33,10.0,North,8.1,-,N/A,,Clear,350,2013-04-13 23:53:00
4:53 PM,30.9,7.0,37,30.34,10.0,WNW,6.9,-,N/A,,Clear,290,2013-04-14 00:53:00
5:53 PM,30.0,8.1,40,30.35,10.0,WNW,10.4,-,N/A,,Clear,290,2013-04-14 01:53:00
6:53 PM,30.0,12.0,47,30.37,10.0,WNW,8.1,-,N/A,,Clear,300,2013-04-14 02:53:00
7:53 PM,28.9,12.0,49,30.38,10.0,WNW,4.6,-,N/A,,Clear,300,2013-04-14 03:53:00
8:53 PM,27.0,16.0,63,30.39,10.0,Calm,Calm,-,N/A,,Clear,0,2013-04-14 04:53:00
9:53 PM,26.1,16.0,66,30.40,10.0,Calm,Calm,-,N/A,,Clear,0,2013-04-14 05:53:00
10:53 PM,23.0,15.1,72,30.42,10.0,Calm,Calm,-,N/A,,Clear,0,2013-04-14 06:53:00
11:53 PM,21.0,12.9,71,30.43,10.0,WNW,4.6,-,N/A,,Clear,290,2013-04-14 07:53:00